This is the code for the website served at https://ur.gs/
You can not select more than 25 topics Topics must start with a letter or number, can include dashes ('-') and can be up to 35 characters long.
 
 
 

13085 lines
367 KiB

<?xml version='1.0' encoding='UTF-8' standalone='yes' ?>
<gpx version="1.1" creator="OsmAnd~ 3.3.8" xmlns="http://www.topografix.com/GPX/1/1" xmlns:xsi="http://www.w3.org/2001/XMLSchema-instance" xsi:schemaLocation="http://www.topografix.com/GPX/1/1 http://www.topografix.com/GPX/1/1/gpx.xsd">
<metadata>
<name>2019-06-29_12-09_Sat</name>
</metadata>
<trk>
<trkseg>
<trkpt lat="60.2461317" lon="-1.1542284">
<ele>4.01</ele>
<time>2019-06-29T11:09:53Z</time>
<hdop>26</hdop>
<extensions>
<speed>2.37</speed>
</extensions>
</trkpt>
<trkpt lat="60.2463591" lon="-1.153645">
<ele>1.01</ele>
<time>2019-06-29T11:09:59Z</time>
<hdop>4</hdop>
</trkpt>
<trkpt lat="60.2463849" lon="-1.1536536">
<ele>3.01</ele>
<time>2019-06-29T11:10:04Z</time>
<hdop>3</hdop>
</trkpt>
<trkpt lat="60.2463953" lon="-1.1536656">
<ele>4.01</ele>
<time>2019-06-29T11:10:10Z</time>
<hdop>3</hdop>
</trkpt>
<trkpt lat="60.2463956" lon="-1.1536656">
<ele>4.01</ele>
<time>2019-06-29T11:10:15Z</time>
<hdop>3</hdop>
</trkpt>
<trkpt lat="60.2463956" lon="-1.1536657">
<ele>4.01</ele>
<time>2019-06-29T11:10:20Z</time>
<hdop>3</hdop>
</trkpt>
<trkpt lat="60.2463956" lon="-1.1536654">
<ele>4.01</ele>
<time>2019-06-29T11:10:26Z</time>
<hdop>3</hdop>
</trkpt>
<trkpt lat="60.2464802" lon="-1.1535833">
<ele>8.01</ele>
<time>2019-06-29T11:10:32Z</time>
<hdop>4</hdop>
<extensions>
<speed>1.12</speed>
</extensions>
</trkpt>
<trkpt lat="60.2465419" lon="-1.1535255">
<ele>6.01</ele>
<time>2019-06-29T11:10:37Z</time>
<hdop>4</hdop>
<extensions>
<speed>1.25</speed>
</extensions>
</trkpt>
<trkpt lat="60.2466054" lon="-1.1534818">
<ele>6.01</ele>
<time>2019-06-29T11:10:42Z</time>
<hdop>3</hdop>
<extensions>
<speed>0.89</speed>
</extensions>
</trkpt>
<trkpt lat="60.2466474" lon="-1.1534053">
<ele>5.01</ele>
<time>2019-06-29T11:10:48Z</time>
<hdop>3</hdop>
<extensions>
<speed>0.87</speed>
</extensions>
</trkpt>
<trkpt lat="60.2466864" lon="-1.1533841">
<ele>6.01</ele>
<time>2019-06-29T11:10:54Z</time>
<hdop>4</hdop>
<extensions>
<speed>0.41</speed>
</extensions>
</trkpt>
<trkpt lat="60.2466926" lon="-1.1533439">
<ele>4.01</ele>
<time>2019-06-29T11:11:00Z</time>
<hdop>3</hdop>
</trkpt>
<trkpt lat="60.2466984" lon="-1.1532401">
<ele>3.01</ele>
<time>2019-06-29T11:11:05Z</time>
<hdop>3</hdop>
<extensions>
<speed>0.81</speed>
</extensions>
</trkpt>
<trkpt lat="60.246708" lon="-1.1532202">
<ele>4.01</ele>
<time>2019-06-29T11:11:11Z</time>
<hdop>9</hdop>
<extensions>
<speed>0.85</speed>
</extensions>
</trkpt>
<trkpt lat="60.2467085" lon="-1.1530862">
<ele>4.01</ele>
<time>2019-06-29T11:11:17Z</time>
<hdop>10</hdop>
<extensions>
<speed>1.13</speed>
</extensions>
</trkpt>
<trkpt lat="60.246721" lon="-1.1529954">
<ele>5.01</ele>
<time>2019-06-29T11:11:22Z</time>
<hdop>10</hdop>
<extensions>
<speed>0.97</speed>
</extensions>
</trkpt>
<trkpt lat="60.2467242" lon="-1.1528195">
<ele>5.01</ele>
<time>2019-06-29T11:11:29Z</time>
<hdop>9</hdop>
<extensions>
<speed>1.17</speed>
</extensions>
</trkpt>
<trkpt lat="60.2467304" lon="-1.1527091">
<ele>4.01</ele>
<time>2019-06-29T11:11:34Z</time>
<hdop>9</hdop>
<extensions>
<speed>0.92</speed>
</extensions>
</trkpt>
<trkpt lat="60.2467336" lon="-1.1526002">
<ele>3.01</ele>
<time>2019-06-29T11:11:40Z</time>
<hdop>9</hdop>
</trkpt>
<trkpt lat="60.246736" lon="-1.1525448">
<ele>4.01</ele>
<time>2019-06-29T11:11:45Z</time>
<hdop>9</hdop>
</trkpt>
<trkpt lat="60.246766" lon="-1.1525092">
<ele>7.01</ele>
<time>2019-06-29T11:11:50Z</time>
<hdop>9</hdop>
<extensions>
<speed>0.98</speed>
</extensions>
</trkpt>
<trkpt lat="60.2468024" lon="-1.1524036">
<ele>6.01</ele>
<time>2019-06-29T11:11:55Z</time>
<hdop>9</hdop>
<extensions>
<speed>1.42</speed>
</extensions>
</trkpt>
<trkpt lat="60.2468093" lon="-1.1522246">
<ele>5.01</ele>
<time>2019-06-29T11:12:01Z</time>
<hdop>10</hdop>
<extensions>
<speed>1.38</speed>
</extensions>
</trkpt>
<trkpt lat="60.2468173" lon="-1.1520861">
<ele>3.01</ele>
<time>2019-06-29T11:12:06Z</time>
<hdop>10</hdop>
<extensions>
<speed>0.97</speed>
</extensions>
</trkpt>
<trkpt lat="60.2468074" lon="-1.1519716">
<ele>1.01</ele>
<time>2019-06-29T11:12:12Z</time>
<hdop>10</hdop>
<extensions>
<speed>1.26</speed>
</extensions>
</trkpt>
<trkpt lat="60.2468011" lon="-1.1518282">
<ele>1.01</ele>
<time>2019-06-29T11:12:17Z</time>
<hdop>10</hdop>
<extensions>
<speed>1.59</speed>
</extensions>
</trkpt>
<trkpt lat="60.2468138" lon="-1.1516539">
<ele>1.01</ele>
<time>2019-06-29T11:12:23Z</time>
<hdop>10</hdop>
<extensions>
<speed>1.48</speed>
</extensions>
</trkpt>
<trkpt lat="60.2468354" lon="-1.1514941">
<ele>3.01</ele>
<time>2019-06-29T11:12:29Z</time>
<hdop>9</hdop>
<extensions>
<speed>1.39</speed>
</extensions>
</trkpt>
<trkpt lat="60.2468799" lon="-1.1513648">
<ele>2.01</ele>
<time>2019-06-29T11:12:35Z</time>
<hdop>9</hdop>
<extensions>
<speed>1.53</speed>
</extensions>
</trkpt>
<trkpt lat="60.246908" lon="-1.1512266">
<ele>0.01</ele>
<time>2019-06-29T11:12:41Z</time>
<hdop>9</hdop>
<extensions>
<speed>1.57</speed>
</extensions>
</trkpt>
<trkpt lat="60.2469324" lon="-1.1511027">
<ele>2.01</ele>
<time>2019-06-29T11:12:46Z</time>
<hdop>9</hdop>
<extensions>
<speed>1.38</speed>
</extensions>
</trkpt>
<trkpt lat="60.2469255" lon="-1.1509582">
<ele>2.01</ele>
<time>2019-06-29T11:12:52Z</time>
<hdop>9</hdop>
<extensions>
<speed>1.48</speed>
</extensions>
</trkpt>
<trkpt lat="60.2469114" lon="-1.1508061">
<ele>3.01</ele>
<time>2019-06-29T11:12:58Z</time>
<hdop>10</hdop>
<extensions>
<speed>1.45</speed>
</extensions>
</trkpt>
<trkpt lat="60.2469071" lon="-1.1506594">
<ele>3.01</ele>
<time>2019-06-29T11:13:03Z</time>
<hdop>10</hdop>
<extensions>
<speed>1.51</speed>
</extensions>
</trkpt>
<trkpt lat="60.2469137" lon="-1.1505384">
<ele>3.01</ele>
<time>2019-06-29T11:13:08Z</time>
<hdop>9</hdop>
<extensions>
<speed>1.2</speed>
</extensions>
</trkpt>
<trkpt lat="60.2469164" lon="-1.1504007">
<ele>1.01</ele>
<time>2019-06-29T11:13:14Z</time>
<hdop>9</hdop>
<extensions>
<speed>1.23</speed>
</extensions>
</trkpt>
<trkpt lat="60.2469232" lon="-1.1503037">
<ele>1.01</ele>
<time>2019-06-29T11:13:20Z</time>
<hdop>9</hdop>
<extensions>
<speed>1.09</speed>
</extensions>
</trkpt>
<trkpt lat="60.246924" lon="-1.1502939">
<ele>1.01</ele>
<time>2019-06-29T11:13:26Z</time>
<hdop>9</hdop>
</trkpt>
<trkpt lat="60.2469284" lon="-1.1502679">
<ele>1.01</ele>
<time>2019-06-29T11:13:31Z</time>
<hdop>9</hdop>
</trkpt>
<trkpt lat="60.2469298" lon="-1.150261">
<ele>2.01</ele>
<time>2019-06-29T11:13:37Z</time>
<hdop>9</hdop>
</trkpt>
<trkpt lat="60.2469356" lon="-1.1502222">
<ele>1.01</ele>
<time>2019-06-29T11:13:42Z</time>
<hdop>9</hdop>
<extensions>
<speed>0.82</speed>
</extensions>
</trkpt>
<trkpt lat="60.2469857" lon="-1.1500652">
<ele>5.01</ele>
<time>2019-06-29T11:13:48Z</time>
<hdop>9</hdop>
</trkpt>
<trkpt lat="60.247028" lon="-1.1499441">
<ele>3.01</ele>
<time>2019-06-29T11:13:54Z</time>
<hdop>9</hdop>
<extensions>
<speed>1.08</speed>
</extensions>
</trkpt>
<trkpt lat="60.2470713" lon="-1.1498675">
<ele>2.01</ele>
<time>2019-06-29T11:14:00Z</time>
<hdop>10</hdop>
<extensions>
<speed>0.92</speed>
</extensions>
</trkpt>
<trkpt lat="60.2470937" lon="-1.1498132">
<ele>3.01</ele>
<time>2019-06-29T11:14:06Z</time>
<hdop>9</hdop>
</trkpt>
<trkpt lat="60.2471084" lon="-1.149753">
<ele>3.01</ele>
<time>2019-06-29T11:14:11Z</time>
<hdop>9</hdop>
<extensions>
<speed>0.83</speed>
</extensions>
</trkpt>
<trkpt lat="60.2471468" lon="-1.1496227">
<ele>3.01</ele>
<time>2019-06-29T11:14:17Z</time>
<hdop>9</hdop>
</trkpt>
<trkpt lat="60.2471673" lon="-1.1495557">
<ele>3.01</ele>
<time>2019-06-29T11:14:23Z</time>
<hdop>9</hdop>
<extensions>
<speed>0.76</speed>
</extensions>
</trkpt>
<trkpt lat="60.2472154" lon="-1.1494396">
<ele>4.01</ele>
<time>2019-06-29T11:14:29Z</time>
<hdop>9</hdop>
<extensions>
<speed>1.08</speed>
</extensions>
</trkpt>
<trkpt lat="60.2472469" lon="-1.149389">
<ele>7.01</ele>
<time>2019-06-29T11:14:34Z</time>
<hdop>9</hdop>
<extensions>
<speed>1.02</speed>
</extensions>
</trkpt>
<trkpt lat="60.2472886" lon="-1.1492801">
<ele>7.01</ele>
<time>2019-06-29T11:14:40Z</time>
<hdop>9</hdop>
<extensions>
<speed>0.96</speed>
</extensions>
</trkpt>
<trkpt lat="60.247338" lon="-1.1491755">
<ele>4.01</ele>
<time>2019-06-29T11:14:45Z</time>
<hdop>9</hdop>
<extensions>
<speed>1.24</speed>
</extensions>
</trkpt>
<trkpt lat="60.2473582" lon="-1.149141">
<ele>5.01</ele>
<time>2019-06-29T11:14:50Z</time>
<hdop>9</hdop>
</trkpt>
<trkpt lat="60.2473889" lon="-1.1490777">
<ele>4.01</ele>
<time>2019-06-29T11:14:56Z</time>
<hdop>9</hdop>
</trkpt>
<trkpt lat="60.247422" lon="-1.1489894">
<ele>5.01</ele>
<time>2019-06-29T11:15:02Z</time>
<hdop>9</hdop>
<extensions>
<speed>1.16</speed>
</extensions>
</trkpt>
<trkpt lat="60.2474507" lon="-1.1489106">
<ele>5.01</ele>
<time>2019-06-29T11:15:07Z</time>
<hdop>10</hdop>
<extensions>
<speed>1.42</speed>
</extensions>
</trkpt>
<trkpt lat="60.2474825" lon="-1.1488288">
<ele>4.01</ele>
<time>2019-06-29T11:15:13Z</time>
<hdop>9</hdop>
<extensions>
<speed>0.33</speed>
</extensions>
</trkpt>
<trkpt lat="60.2475139" lon="-1.1487545">
<ele>5.01</ele>
<time>2019-06-29T11:15:19Z</time>
<hdop>9</hdop>
</trkpt>
<trkpt lat="60.2475224" lon="-1.1487255">
<ele>4.01</ele>
<time>2019-06-29T11:15:25Z</time>
<hdop>9</hdop>
</trkpt>
<trkpt lat="60.2475393" lon="-1.1486764">
<ele>5.01</ele>
<time>2019-06-29T11:15:30Z</time>
<hdop>9</hdop>
</trkpt>
<trkpt lat="60.2475494" lon="-1.1486463">
<ele>5.01</ele>
<time>2019-06-29T11:15:35Z</time>
<hdop>9</hdop>
</trkpt>
<trkpt lat="60.247591" lon="-1.1485133">
<ele>5.01</ele>
<time>2019-06-29T11:15:41Z</time>
<hdop>9</hdop>
<extensions>
<speed>1.1</speed>
</extensions>
</trkpt>
<trkpt lat="60.2476484" lon="-1.1483904">
<ele>4.01</ele>
<time>2019-06-29T11:15:47Z</time>
<hdop>9</hdop>
<extensions>
<speed>1.31</speed>
</extensions>
</trkpt>
<trkpt lat="60.2477042" lon="-1.1482698">
<ele>6.01</ele>
<time>2019-06-29T11:15:53Z</time>
<hdop>9</hdop>
<extensions>
<speed>1.33</speed>
</extensions>
</trkpt>
<trkpt lat="60.2477577" lon="-1.1482027">
<ele>6.01</ele>
<time>2019-06-29T11:15:59Z</time>
<hdop>9</hdop>
<extensions>
<speed>1.22</speed>
</extensions>
</trkpt>
<trkpt lat="60.2477913" lon="-1.148141">
<ele>6.01</ele>
<time>2019-06-29T11:16:05Z</time>
<hdop>9</hdop>
<extensions>
<speed>1.05</speed>
</extensions>
</trkpt>
<trkpt lat="60.2478279" lon="-1.1480679">
<ele>6.01</ele>
<time>2019-06-29T11:16:10Z</time>
<hdop>9</hdop>
<extensions>
<speed>1.19</speed>
</extensions>
</trkpt>
<trkpt lat="60.2478999" lon="-1.1479617">
<ele>7.01</ele>
<time>2019-06-29T11:16:16Z</time>
<hdop>9</hdop>
<extensions>
<speed>1.1</speed>
</extensions>
</trkpt>
<trkpt lat="60.2479437" lon="-1.1478649">
<ele>8.01</ele>
<time>2019-06-29T11:16:22Z</time>
<hdop>9</hdop>
<extensions>
<speed>1.26</speed>
</extensions>
</trkpt>
<trkpt lat="60.2479863" lon="-1.1477594">
<ele>6.01</ele>
<time>2019-06-29T11:16:27Z</time>
<hdop>9</hdop>
<extensions>
<speed>1.47</speed>
</extensions>
</trkpt>
<trkpt lat="60.2480258" lon="-1.147673">
<ele>6.01</ele>
<time>2019-06-29T11:16:32Z</time>
<hdop>9</hdop>
<extensions>
<speed>1.38</speed>
</extensions>
</trkpt>
<trkpt lat="60.2480579" lon="-1.1475451">
<ele>5.01</ele>
<time>2019-06-29T11:16:38Z</time>
<hdop>9</hdop>
<extensions>
<speed>1.37</speed>
</extensions>
</trkpt>
<trkpt lat="60.2480902" lon="-1.1474564">
<ele>5.01</ele>
<time>2019-06-29T11:16:44Z</time>
<hdop>9</hdop>
<extensions>
<speed>1.19</speed>
</extensions>
</trkpt>
<trkpt lat="60.2481279" lon="-1.147375">
<ele>5.01</ele>
<time>2019-06-29T11:16:49Z</time>
<hdop>9</hdop>
<extensions>
<speed>1.45</speed>
</extensions>
</trkpt>
<trkpt lat="60.2481619" lon="-1.1472861">
<ele>7.01</ele>
<time>2019-06-29T11:16:55Z</time>
<hdop>9</hdop>
<extensions>
<speed>1.2</speed>
</extensions>
</trkpt>
<trkpt lat="60.2482096" lon="-1.1471974">
<ele>6.01</ele>
<time>2019-06-29T11:17:00Z</time>
<hdop>9</hdop>
<extensions>
<speed>1.35</speed>
</extensions>
</trkpt>
<trkpt lat="60.2482347" lon="-1.1470974">
<ele>6.01</ele>
<time>2019-06-29T11:17:06Z</time>
<hdop>9</hdop>
<extensions>
<speed>1.36</speed>
</extensions>
</trkpt>
<trkpt lat="60.2482472" lon="-1.1470217">
<ele>7.01</ele>
<time>2019-06-29T11:17:11Z</time>
<hdop>9</hdop>
<extensions>
<speed>1.02</speed>
</extensions>
</trkpt>
<trkpt lat="60.2482734" lon="-1.1468479">
<ele>5.01</ele>
<time>2019-06-29T11:17:17Z</time>
<hdop>9</hdop>
<extensions>
<speed>1.11</speed>
</extensions>
</trkpt>
<trkpt lat="60.248298" lon="-1.1467894">
<ele>4.01</ele>
<time>2019-06-29T11:17:22Z</time>
<hdop>9</hdop>
<extensions>
<speed>1.27</speed>
</extensions>
</trkpt>
<trkpt lat="60.2483432" lon="-1.1467075">
<ele>6.01</ele>
<time>2019-06-29T11:17:28Z</time>
<hdop>9</hdop>
<extensions>
<speed>1.32</speed>
</extensions>
</trkpt>
<trkpt lat="60.2483805" lon="-1.1466312">
<ele>6.01</ele>
<time>2019-06-29T11:17:33Z</time>
<hdop>10</hdop>
<extensions>
<speed>1.09</speed>
</extensions>
</trkpt>
<trkpt lat="60.2484312" lon="-1.1464576">
<ele>7.01</ele>
<time>2019-06-29T11:17:39Z</time>
<hdop>9</hdop>
<extensions>
<speed>1.42</speed>
</extensions>
</trkpt>
<trkpt lat="60.2484559" lon="-1.1463">
<ele>6.01</ele>
<time>2019-06-29T11:17:45Z</time>
<hdop>9</hdop>
<extensions>
<speed>1.33</speed>
</extensions>
</trkpt>
<trkpt lat="60.2484766" lon="-1.1461661">
<ele>6.01</ele>
<time>2019-06-29T11:17:50Z</time>
<hdop>9</hdop>
<extensions>
<speed>1.45</speed>
</extensions>
</trkpt>
<trkpt lat="60.2484922" lon="-1.1460552">
<ele>6.01</ele>
<time>2019-06-29T11:17:56Z</time>
<hdop>9</hdop>
</trkpt>
<trkpt lat="60.2485241" lon="-1.1459719">
<ele>8.01</ele>
<time>2019-06-29T11:18:01Z</time>
<hdop>9</hdop>
<extensions>
<speed>1.3</speed>
</extensions>
</trkpt>
<trkpt lat="60.2485685" lon="-1.1458526">
<ele>6.01</ele>
<time>2019-06-29T11:18:07Z</time>
<hdop>9</hdop>
<extensions>
<speed>0.83</speed>
</extensions>
</trkpt>
<trkpt lat="60.2486134" lon="-1.1457651">
<ele>9.01</ele>
<time>2019-06-29T11:18:13Z</time>
<hdop>9</hdop>
<extensions>
<speed>1.27</speed>
</extensions>
</trkpt>
<trkpt lat="60.2486392" lon="-1.1456838">
<ele>7.01</ele>
<time>2019-06-29T11:18:18Z</time>
<hdop>9</hdop>
<extensions>
<speed>1.33</speed>
</extensions>
</trkpt>
<trkpt lat="60.2486944" lon="-1.1455667">
<ele>7.01</ele>
<time>2019-06-29T11:18:24Z</time>
<hdop>9</hdop>
<extensions>
<speed>1.28</speed>
</extensions>
</trkpt>
<trkpt lat="60.2487349" lon="-1.1455003">
<ele>6.01</ele>
<time>2019-06-29T11:18:29Z</time>
<hdop>9</hdop>
<extensions>
<speed>1.3</speed>
</extensions>
</trkpt>
<trkpt lat="60.2487898" lon="-1.1454093">
<ele>5.01</ele>
<time>2019-06-29T11:18:35Z</time>
<hdop>9</hdop>
<extensions>
<speed>1.03</speed>
</extensions>
</trkpt>
<trkpt lat="60.2488396" lon="-1.1453017">
<ele>8.01</ele>
<time>2019-06-29T11:18:40Z</time>
<hdop>9</hdop>
<extensions>
<speed>1.29</speed>
</extensions>
</trkpt>
<trkpt lat="60.2488622" lon="-1.1452398">
<ele>7.01</ele>
<time>2019-06-29T11:18:45Z</time>
<hdop>9</hdop>
</trkpt>
<trkpt lat="60.2488847" lon="-1.14518">
<ele>8.01</ele>
<time>2019-06-29T11:18:51Z</time>
<hdop>9</hdop>
<extensions>
<speed>0.92</speed>
</extensions>
</trkpt>
<trkpt lat="60.2489149" lon="-1.1450738">
<ele>7.01</ele>
<time>2019-06-29T11:18:56Z</time>
<hdop>9</hdop>
<extensions>
<speed>1.07</speed>
</extensions>
</trkpt>
<trkpt lat="60.2489378" lon="-1.1449932">
<ele>6.01</ele>
<time>2019-06-29T11:19:01Z</time>
<hdop>9</hdop>
<extensions>
<speed>0.89</speed>
</extensions>
</trkpt>
<trkpt lat="60.2489815" lon="-1.144857">
<ele>5.01</ele>
<time>2019-06-29T11:19:07Z</time>
<hdop>9</hdop>
<extensions>
<speed>0.88</speed>
</extensions>
</trkpt>
<trkpt lat="60.2490058" lon="-1.1448113">
<ele>7.01</ele>
<time>2019-06-29T11:19:12Z</time>
<hdop>9</hdop>
<extensions>
<speed>0.72</speed>
</extensions>
</trkpt>
<trkpt lat="60.2490149" lon="-1.1447534">
<ele>6.01</ele>
<time>2019-06-29T11:19:18Z</time>
<hdop>9</hdop>
</trkpt>
<trkpt lat="60.2490319" lon="-1.1446999">
<ele>4.01</ele>
<time>2019-06-29T11:19:23Z</time>
<hdop>9</hdop>
<extensions>
<speed>0.65</speed>
</extensions>
</trkpt>
<trkpt lat="60.2490639" lon="-1.144614">
<ele>3.01</ele>
<time>2019-06-29T11:19:28Z</time>
<hdop>9</hdop>
<extensions>
<speed>1.28</speed>
</extensions>
</trkpt>
<trkpt lat="60.2491116" lon="-1.1445071">
<ele>4.01</ele>
<time>2019-06-29T11:19:34Z</time>
<hdop>9</hdop>
<extensions>
<speed>1.3</speed>
</extensions>
</trkpt>
<trkpt lat="60.2491835" lon="-1.1443992">
<ele>4.01</ele>
<time>2019-06-29T11:19:40Z</time>
<hdop>9</hdop>
<extensions>
<speed>1.44</speed>
</extensions>
</trkpt>
<trkpt lat="60.2492321" lon="-1.1442956">
<ele>5.01</ele>
<time>2019-06-29T11:19:45Z</time>
<hdop>9</hdop>
<extensions>
<speed>1.58</speed>
</extensions>
</trkpt>
<trkpt lat="60.249292" lon="-1.144146">
<ele>7.01</ele>
<time>2019-06-29T11:19:51Z</time>
<hdop>9</hdop>
<extensions>
<speed>1.54</speed>
</extensions>
</trkpt>
<trkpt lat="60.2493336" lon="-1.1440632">
<ele>6.01</ele>
<time>2019-06-29T11:19:56Z</time>
<hdop>9</hdop>
<extensions>
<speed>0.75</speed>
</extensions>
</trkpt>
<trkpt lat="60.2493983" lon="-1.1439411">
<ele>6.01</ele>
<time>2019-06-29T11:20:02Z</time>
<hdop>9</hdop>
<extensions>
<speed>1.14</speed>
</extensions>
</trkpt>
<trkpt lat="60.2494467" lon="-1.1438289">
<ele>5.01</ele>
<time>2019-06-29T11:20:07Z</time>
<hdop>9</hdop>
<extensions>
<speed>1.41</speed>
</extensions>
</trkpt>
<trkpt lat="60.2495106" lon="-1.1437138">
<ele>7.01</ele>
<time>2019-06-29T11:20:13Z</time>
<hdop>9</hdop>
<extensions>
<speed>1.56</speed>
</extensions>
</trkpt>
<trkpt lat="60.2495512" lon="-1.1435779">
<ele>8.01</ele>
<time>2019-06-29T11:20:19Z</time>
<hdop>9</hdop>
<extensions>
<speed>1.56</speed>
</extensions>
</trkpt>
<trkpt lat="60.2495956" lon="-1.1434725">
<ele>10.01</ele>
<time>2019-06-29T11:20:24Z</time>
<hdop>9</hdop>
<extensions>
<speed>1.13</speed>
</extensions>
</trkpt>
<trkpt lat="60.2496466" lon="-1.1433582">
<ele>9.01</ele>
<time>2019-06-29T11:20:30Z</time>
<hdop>9</hdop>
<extensions>
<speed>0.99</speed>
</extensions>
</trkpt>
<trkpt lat="60.2496906" lon="-1.1432785">
<ele>9.01</ele>
<time>2019-06-29T11:20:36Z</time>
<hdop>9</hdop>
<extensions>
<speed>1.2</speed>
</extensions>
</trkpt>
<trkpt lat="60.2497349" lon="-1.1431819">
<ele>8.01</ele>
<time>2019-06-29T11:20:42Z</time>
<hdop>9</hdop>
<extensions>
<speed>1.23</speed>
</extensions>
</trkpt>
<trkpt lat="60.2497776" lon="-1.1430609">
<ele>9.01</ele>
<time>2019-06-29T11:20:48Z</time>
<hdop>9</hdop>
<extensions>
<speed>1.88</speed>
</extensions>
</trkpt>
<trkpt lat="60.2498297" lon="-1.1429406">
<ele>8.01</ele>
<time>2019-06-29T11:20:54Z</time>
<hdop>10</hdop>
<extensions>
<speed>1.3</speed>
</extensions>
</trkpt>
<trkpt lat="60.2498566" lon="-1.1428758">
<ele>9.01</ele>
<time>2019-06-29T11:20:59Z</time>
<hdop>9</hdop>
<extensions>
<speed>1.26</speed>
</extensions>
</trkpt>
<trkpt lat="60.249896" lon="-1.1427587">
<ele>6.01</ele>
<time>2019-06-29T11:21:04Z</time>
<hdop>9</hdop>
<extensions>
<speed>1.27</speed>
</extensions>
</trkpt>
<trkpt lat="60.2499369" lon="-1.1426701">
<ele>8.01</ele>
<time>2019-06-29T11:21:10Z</time>
<hdop>9</hdop>
<extensions>
<speed>1.03</speed>
</extensions>
</trkpt>
<trkpt lat="60.2499977" lon="-1.1426076">
<ele>7.01</ele>
<time>2019-06-29T11:21:16Z</time>
<hdop>9</hdop>
<extensions>
<speed>1.21</speed>
</extensions>
</trkpt>
<trkpt lat="60.2500448" lon="-1.1424738">
<ele>4.56</ele>
<time>2019-06-29T11:21:21Z</time>
<hdop>9</hdop>
<extensions>
<speed>1.5</speed>
</extensions>
</trkpt>
<trkpt lat="60.2500966" lon="-1.1423585">
<ele>4.56</ele>
<time>2019-06-29T11:21:27Z</time>
<hdop>9</hdop>
<extensions>
<speed>1.32</speed>
</extensions>
</trkpt>
<trkpt lat="60.250159" lon="-1.1422688">
<ele>7.56</ele>
<time>2019-06-29T11:21:32Z</time>
<hdop>9</hdop>
<extensions>
<speed>1.36</speed>
</extensions>
</trkpt>
<trkpt lat="60.2502062" lon="-1.1421434">
<ele>6.56</ele>
<time>2019-06-29T11:21:38Z</time>
<hdop>9</hdop>
<extensions>
<speed>1.8</speed>
</extensions>
</trkpt>
<trkpt lat="60.2502524" lon="-1.1420393">
<ele>7.56</ele>
<time>2019-06-29T11:21:43Z</time>
<hdop>9</hdop>
<extensions>
<speed>1.56</speed>
</extensions>
</trkpt>
<trkpt lat="60.2502923" lon="-1.1419545">
<ele>6.56</ele>
<time>2019-06-29T11:21:48Z</time>
<hdop>9</hdop>
<extensions>
<speed>1.04</speed>
</extensions>
</trkpt>
<trkpt lat="60.2503798" lon="-1.141814">
<ele>9.56</ele>
<time>2019-06-29T11:21:54Z</time>
<hdop>9</hdop>
<extensions>
<speed>1.25</speed>
</extensions>
</trkpt>
<trkpt lat="60.2504484" lon="-1.1416826">
<ele>7.56</ele>
<time>2019-06-29T11:22:00Z</time>
<hdop>9</hdop>
<extensions>
<speed>1.47</speed>
</extensions>
</trkpt>
<trkpt lat="60.2504888" lon="-1.1415801">
<ele>6.56</ele>
<time>2019-06-29T11:22:05Z</time>
<hdop>9</hdop>
<extensions>
<speed>1.7</speed>
</extensions>
</trkpt>
<trkpt lat="60.2505152" lon="-1.1414852">
<ele>5.56</ele>
<time>2019-06-29T11:22:10Z</time>
<hdop>9</hdop>
<extensions>
<speed>1.5</speed>
</extensions>
</trkpt>
<trkpt lat="60.2505884" lon="-1.1413581">
<ele>9.56</ele>
<time>2019-06-29T11:22:16Z</time>
<hdop>9</hdop>
<extensions>
<speed>1.75</speed>
</extensions>
</trkpt>
<trkpt lat="60.2506479" lon="-1.1412557">
<ele>8.56</ele>
<time>2019-06-29T11:22:21Z</time>
<hdop>9</hdop>
<extensions>
<speed>1.77</speed>
</extensions>
</trkpt>
<trkpt lat="60.250698" lon="-1.1411187">
<ele>5.56</ele>
<time>2019-06-29T11:22:27Z</time>
<hdop>9</hdop>
<extensions>
<speed>1.58</speed>
</extensions>
</trkpt>
<trkpt lat="60.2507276" lon="-1.1410088">
<ele>4.56</ele>
<time>2019-06-29T11:22:32Z</time>
<hdop>10</hdop>
<extensions>
<speed>1.77</speed>
</extensions>
</trkpt>
<trkpt lat="60.2507604" lon="-1.1408408">
<ele>4.56</ele>
<time>2019-06-29T11:22:38Z</time>
<hdop>10</hdop>
<extensions>
<speed>1.87</speed>
</extensions>
</trkpt>
<trkpt lat="60.2507862" lon="-1.140712">
<ele>4.56</ele>
<time>2019-06-29T11:22:43Z</time>
<hdop>10</hdop>
<extensions>
<speed>1.76</speed>
</extensions>
</trkpt>
<trkpt lat="60.2508053" lon="-1.1405522">
<ele>3.56</ele>
<time>2019-06-29T11:22:49Z</time>
<hdop>9</hdop>
<extensions>
<speed>1.37</speed>
</extensions>
</trkpt>
<trkpt lat="60.2508107" lon="-1.1404646">
<ele>2.56</ele>
<time>2019-06-29T11:22:54Z</time>
<hdop>10</hdop>
</trkpt>
<trkpt lat="60.2508486" lon="-1.1403146">
<ele>5.56</ele>
<time>2019-06-29T11:22:59Z</time>
<hdop>9</hdop>
<extensions>
<speed>1.14</speed>
</extensions>
</trkpt>
<trkpt lat="60.2508685" lon="-1.1402312">
<ele>5.56</ele>
<time>2019-06-29T11:23:05Z</time>
<hdop>9</hdop>
<extensions>
<speed>1.29</speed>
</extensions>
</trkpt>
<trkpt lat="60.2509052" lon="-1.1400561">
<ele>7.56</ele>
<time>2019-06-29T11:23:11Z</time>
<hdop>9</hdop>
<extensions>
<speed>1.28</speed>
</extensions>
</trkpt>
<trkpt lat="60.2509269" lon="-1.1399252">
<ele>7.56</ele>
<time>2019-06-29T11:23:16Z</time>
<hdop>10</hdop>
<extensions>
<speed>1.56</speed>
</extensions>
</trkpt>
<trkpt lat="60.2509618" lon="-1.1397053">
<ele>7.56</ele>
<time>2019-06-29T11:23:22Z</time>
<hdop>9</hdop>
<extensions>
<speed>1.48</speed>
</extensions>
</trkpt>
<trkpt lat="60.2509805" lon="-1.1395677">
<ele>5.56</ele>
<time>2019-06-29T11:23:27Z</time>
<hdop>9</hdop>
<extensions>
<speed>1.46</speed>
</extensions>
</trkpt>
<trkpt lat="60.2509983" lon="-1.1394103">
<ele>5.56</ele>
<time>2019-06-29T11:23:32Z</time>
<hdop>9</hdop>
<extensions>
<speed>1.6</speed>
</extensions>
</trkpt>
<trkpt lat="60.2510035" lon="-1.1392436">
<ele>4.56</ele>
<time>2019-06-29T11:23:38Z</time>
<hdop>9</hdop>
<extensions>
<speed>1.25</speed>
</extensions>
</trkpt>
<trkpt lat="60.2510015" lon="-1.1392026">
<ele>3.56</ele>
<time>2019-06-29T11:23:43Z</time>
<hdop>9</hdop>
<extensions>
<speed>1.21</speed>
</extensions>
</trkpt>
<trkpt lat="60.251" lon="-1.1390912">
<ele>3.56</ele>
<time>2019-06-29T11:23:49Z</time>
<hdop>9</hdop>
<extensions>
<speed>1.17</speed>
</extensions>
</trkpt>
<trkpt lat="60.2509906" lon="-1.1390087">
<ele>3.56</ele>
<time>2019-06-29T11:23:54Z</time>
<hdop>10</hdop>
<extensions>
<speed>0.82</speed>
</extensions>
</trkpt>
<trkpt lat="60.2509781" lon="-1.1389245">
<ele>2.56</ele>
<time>2019-06-29T11:24:00Z</time>
<hdop>10</hdop>
<extensions>
<speed>1.23</speed>
</extensions>
</trkpt>
<trkpt lat="60.2509607" lon="-1.1388365">
<ele>2.56</ele>
<time>2019-06-29T11:24:05Z</time>
<hdop>10</hdop>
<extensions>
<speed>1.12</speed>
</extensions>
</trkpt>
<trkpt lat="60.2509551" lon="-1.1387695">
<ele>1.56</ele>
<time>2019-06-29T11:24:11Z</time>
<hdop>10</hdop>
<extensions>
<speed>0.86</speed>
</extensions>
</trkpt>
<trkpt lat="60.2509199" lon="-1.1386952">
<ele>1.56</ele>
<time>2019-06-29T11:24:16Z</time>
<hdop>10</hdop>
<extensions>
<speed>0.99</speed>
</extensions>
</trkpt>
<trkpt lat="60.2508838" lon="-1.138645">
<ele>0.56</ele>
<time>2019-06-29T11:24:21Z</time>
<hdop>10</hdop>
<extensions>
<speed>1.09</speed>
</extensions>
</trkpt>
<trkpt lat="60.2508072" lon="-1.1385539">
<ele>0.56</ele>
<time>2019-06-29T11:24:27Z</time>
<hdop>9</hdop>
<extensions>
<speed>1.58</speed>
</extensions>
</trkpt>
<trkpt lat="60.2507521" lon="-1.1385121">
<ele>2.56</ele>
<time>2019-06-29T11:24:32Z</time>
<hdop>9</hdop>
<extensions>
<speed>1.2</speed>
</extensions>
</trkpt>
<trkpt lat="60.2506986" lon="-1.1384728">
<ele>3.56</ele>
<time>2019-06-29T11:24:37Z</time>
<hdop>9</hdop>
<extensions>
<speed>1.19</speed>
</extensions>
</trkpt>
<trkpt lat="60.2506132" lon="-1.1384193">
<ele>2.56</ele>
<time>2019-06-29T11:24:43Z</time>
<hdop>9</hdop>
<extensions>
<speed>1.63</speed>
</extensions>
</trkpt>
<trkpt lat="60.250522" lon="-1.1383707">
<ele>3.56</ele>
<time>2019-06-29T11:24:49Z</time>
<hdop>9</hdop>
<extensions>
<speed>1.54</speed>
</extensions>
</trkpt>
<trkpt lat="60.250491" lon="-1.1384096">
<ele>4.56</ele>
<time>2019-06-29T11:24:54Z</time>
<hdop>9</hdop>
<extensions>
<speed>0.83</speed>
</extensions>
</trkpt>
<trkpt lat="60.250419" lon="-1.1384097">
<ele>4.56</ele>
<time>2019-06-29T11:25:00Z</time>
<hdop>9</hdop>
<extensions>
<speed>1.21</speed>
</extensions>
</trkpt>
<trkpt lat="60.2503915" lon="-1.1384099">
<ele>5.56</ele>
<time>2019-06-29T11:25:05Z</time>
<hdop>9</hdop>
</trkpt>
<trkpt lat="60.2503216" lon="-1.13839">
<ele>4.56</ele>
<time>2019-06-29T11:25:11Z</time>
<hdop>9</hdop>
</trkpt>
<trkpt lat="60.2502458" lon="-1.1384029">
<ele>4.56</ele>
<time>2019-06-29T11:25:16Z</time>
<hdop>9</hdop>
<extensions>
<speed>1.44</speed>
</extensions>
</trkpt>
<trkpt lat="60.250174" lon="-1.1383797">
<ele>3.56</ele>
<time>2019-06-29T11:25:22Z</time>
<hdop>9</hdop>
<extensions>
<speed>1.27</speed>
</extensions>
</trkpt>
<trkpt lat="60.2501134" lon="-1.1383754">
<ele>2.56</ele>
<time>2019-06-29T11:25:27Z</time>
<hdop>9</hdop>
<extensions>
<speed>1.3</speed>
</extensions>
</trkpt>
<trkpt lat="60.2500555" lon="-1.1384097">
<ele>3.56</ele>
<time>2019-06-29T11:25:32Z</time>
<hdop>9</hdop>
<extensions>
<speed>1.37</speed>
</extensions>
</trkpt>
<trkpt lat="60.2499797" lon="-1.1384485">
<ele>4.01</ele>
<time>2019-06-29T11:25:37Z</time>
<hdop>9</hdop>
<extensions>
<speed>1.44</speed>
</extensions>
</trkpt>
<trkpt lat="60.2499046" lon="-1.1384754">
<ele>4.01</ele>
<time>2019-06-29T11:25:43Z</time>
<hdop>9</hdop>
<extensions>
<speed>1.24</speed>
</extensions>
</trkpt>
<trkpt lat="60.2498403" lon="-1.1384856">
<ele>3.01</ele>
<time>2019-06-29T11:25:49Z</time>
<hdop>9</hdop>
<extensions>
<speed>1.16</speed>
</extensions>
</trkpt>
<trkpt lat="60.2497938" lon="-1.138501">
<ele>3.01</ele>
<time>2019-06-29T11:25:54Z</time>
<hdop>9</hdop>
<extensions>
<speed>1.04</speed>
</extensions>
</trkpt>
<trkpt lat="60.2497241" lon="-1.1385173">
<ele>2.01</ele>
<time>2019-06-29T11:26:00Z</time>
<hdop>9</hdop>
<extensions>
<speed>1.23</speed>
</extensions>
</trkpt>
<trkpt lat="60.2496698" lon="-1.1385226">
<ele>1.01</ele>
<time>2019-06-29T11:26:05Z</time>
<hdop>9</hdop>
<extensions>
<speed>1.25</speed>
</extensions>
</trkpt>
<trkpt lat="60.2496064" lon="-1.1385351">
<ele>1.01</ele>
<time>2019-06-29T11:26:11Z</time>
<hdop>9</hdop>
<extensions>
<speed>1.03</speed>
</extensions>
</trkpt>
<trkpt lat="60.2495507" lon="-1.1385555">
<ele>1.01</ele>
<time>2019-06-29T11:26:17Z</time>
<hdop>9</hdop>
<extensions>
<speed>1.09</speed>
</extensions>
</trkpt>
<trkpt lat="60.249491" lon="-1.1385635">
<ele>2.01</ele>
<time>2019-06-29T11:26:22Z</time>
<hdop>9</hdop>
<extensions>
<speed>1.13</speed>
</extensions>
</trkpt>
<trkpt lat="60.2494308" lon="-1.1386108">
<ele>1.01</ele>
<time>2019-06-29T11:26:28Z</time>
<hdop>9</hdop>
<extensions>
<speed>1.29</speed>
</extensions>
</trkpt>
<trkpt lat="60.249385" lon="-1.138658">
<ele>2.01</ele>
<time>2019-06-29T11:26:33Z</time>
<hdop>9</hdop>
<extensions>
<speed>1.17</speed>
</extensions>
</trkpt>
<trkpt lat="60.2493282" lon="-1.1387525">
<ele>1.01</ele>
<time>2019-06-29T11:26:39Z</time>
<hdop>3</hdop>
<extensions>
<speed>1.21</speed>
</extensions>
</trkpt>
<trkpt lat="60.2492874" lon="-1.1388535">
<ele>2.01</ele>
<time>2019-06-29T11:26:44Z</time>
<hdop>3</hdop>
<extensions>
<speed>1.46</speed>
</extensions>
</trkpt>
<trkpt lat="60.2492773" lon="-1.1389762">
<ele>2.01</ele>
<time>2019-06-29T11:26:50Z</time>
<hdop>3</hdop>
<extensions>
<speed>1.22</speed>
</extensions>
</trkpt>
<trkpt lat="60.2492491" lon="-1.1390945">
<ele>3.01</ele>
<time>2019-06-29T11:26:56Z</time>
<hdop>3</hdop>
<extensions>
<speed>1.5</speed>
</extensions>
</trkpt>
<trkpt lat="60.2492146" lon="-1.1391584">
<ele>4.01</ele>
<time>2019-06-29T11:27:01Z</time>
<hdop>3</hdop>
<extensions>
<speed>0.89</speed>
</extensions>
</trkpt>
<trkpt lat="60.2491934" lon="-1.1393096">
<ele>6.01</ele>
<time>2019-06-29T11:27:07Z</time>
<hdop>3</hdop>
<extensions>
<speed>1.2</speed>
</extensions>
</trkpt>
<trkpt lat="60.2491708" lon="-1.1394352">
<ele>6.01</ele>
<time>2019-06-29T11:27:12Z</time>
<hdop>4</hdop>
<extensions>
<speed>1.26</speed>
</extensions>
</trkpt>
<trkpt lat="60.2491327" lon="-1.1395339">
<ele>7.01</ele>
<time>2019-06-29T11:27:17Z</time>
<hdop>4</hdop>
<extensions>
<speed>1.42</speed>
</extensions>
</trkpt>
<trkpt lat="60.249113" lon="-1.1396542">
<ele>6.01</ele>
<time>2019-06-29T11:27:22Z</time>
<hdop>3</hdop>
<extensions>
<speed>1.46</speed>
</extensions>
</trkpt>
<trkpt lat="60.2490795" lon="-1.139796">
<ele>7.01</ele>
<time>2019-06-29T11:27:27Z</time>
<hdop>3</hdop>
<extensions>
<speed>1.24</speed>
</extensions>
</trkpt>
<trkpt lat="60.2490535" lon="-1.1399637">
<ele>6.01</ele>
<time>2019-06-29T11:27:33Z</time>
<hdop>3</hdop>
<extensions>
<speed>1.38</speed>
</extensions>
</trkpt>
<trkpt lat="60.2490405" lon="-1.1401076">
<ele>6.01</ele>
<time>2019-06-29T11:27:38Z</time>
<hdop>3</hdop>
<extensions>
<speed>1.37</speed>
</extensions>
</trkpt>
<trkpt lat="60.2490288" lon="-1.1402556">
<ele>5.01</ele>
<time>2019-06-29T11:27:44Z</time>
<hdop>3</hdop>
<extensions>
<speed>1.1</speed>
</extensions>
</trkpt>
<trkpt lat="60.2490094" lon="-1.1403686">
<ele>5.01</ele>
<time>2019-06-29T11:27:49Z</time>
<hdop>3</hdop>
<extensions>
<speed>1.25</speed>
</extensions>
</trkpt>
<trkpt lat="60.2489878" lon="-1.1404933">
<ele>5.01</ele>
<time>2019-06-29T11:27:55Z</time>
<hdop>3</hdop>
<extensions>
<speed>1.24</speed>
</extensions>
</trkpt>
<trkpt lat="60.2489484" lon="-1.1406276">
<ele>4.01</ele>
<time>2019-06-29T11:28:01Z</time>
<hdop>9</hdop>
<extensions>
<speed>1.28</speed>
</extensions>
</trkpt>
<trkpt lat="60.2489352" lon="-1.14072">
<ele>3.01</ele>
<time>2019-06-29T11:28:06Z</time>
<hdop>9</hdop>
<extensions>
<speed>1.39</speed>
</extensions>
</trkpt>
<trkpt lat="60.2489043" lon="-1.1408455">
<ele>3.01</ele>
<time>2019-06-29T11:28:12Z</time>
<hdop>9</hdop>
<extensions>
<speed>1.32</speed>
</extensions>
</trkpt>
<trkpt lat="60.2488914" lon="-1.1409366">
<ele>2.01</ele>
<time>2019-06-29T11:28:17Z</time>
<hdop>9</hdop>
<extensions>
<speed>1.27</speed>
</extensions>
</trkpt>
<trkpt lat="60.2488782" lon="-1.1410677">
<ele>1.01</ele>
<time>2019-06-29T11:28:23Z</time>
<hdop>9</hdop>
<extensions>
<speed>1.23</speed>
</extensions>
</trkpt>
<trkpt lat="60.24884" lon="-1.1412147">
<ele>2.01</ele>
<time>2019-06-29T11:28:29Z</time>
<hdop>9</hdop>
<extensions>
<speed>1.58</speed>
</extensions>
</trkpt>
<trkpt lat="60.2488131" lon="-1.1413536">
<ele>1.01</ele>
<time>2019-06-29T11:28:35Z</time>
<hdop>9</hdop>
<extensions>
<speed>1.05</speed>
</extensions>
</trkpt>
<trkpt lat="60.2487912" lon="-1.1414616">
<ele>2.01</ele>
<time>2019-06-29T11:28:40Z</time>
<hdop>9</hdop>
<extensions>
<speed>1.35</speed>
</extensions>
</trkpt>
<trkpt lat="60.2487742" lon="-1.1415756">
<ele>1.01</ele>
<time>2019-06-29T11:28:46Z</time>
<hdop>9</hdop>
<extensions>
<speed>1.55</speed>
</extensions>
</trkpt>
<trkpt lat="60.2487457" lon="-1.1416879">
<ele>1.01</ele>
<time>2019-06-29T11:28:51Z</time>
<hdop>9</hdop>
<extensions>
<speed>1.29</speed>
</extensions>
</trkpt>
<trkpt lat="60.2487335" lon="-1.1417848">
<ele>0.01</ele>
<time>2019-06-29T11:28:56Z</time>
<hdop>9</hdop>
<extensions>
<speed>1.21</speed>
</extensions>
</trkpt>
<trkpt lat="60.2487177" lon="-1.1418961">
<ele>1.01</ele>
<time>2019-06-29T11:29:02Z</time>
<hdop>9</hdop>
<extensions>
<speed>0.85</speed>
</extensions>
</trkpt>
<trkpt lat="60.2487179" lon="-1.1419688">
<ele>1.01</ele>
<time>2019-06-29T11:29:08Z</time>
<hdop>9</hdop>
<extensions>
<speed>0.28</speed>
</extensions>
</trkpt>
<trkpt lat="60.2487165" lon="-1.1419723">
<ele>1.01</ele>
<time>2019-06-29T11:29:13Z</time>
<hdop>9</hdop>
</trkpt>
<trkpt lat="60.2487185" lon="-1.1419379">
<ele>1.01</ele>
<time>2019-06-29T11:29:19Z</time>
<hdop>9</hdop>
<extensions>
<speed>0.29</speed>
</extensions>
</trkpt>
<trkpt lat="60.248731" lon="-1.1418937">
<ele>0.01</ele>
<time>2019-06-29T11:29:24Z</time>
<hdop>9</hdop>
<extensions>
<speed>0.44</speed>
</extensions>
</trkpt>
<trkpt lat="60.2487376" lon="-1.1418689">
<ele>0.01</ele>
<time>2019-06-29T11:29:29Z</time>
<hdop>9</hdop>
<extensions>
<speed>0.23</speed>
</extensions>
</trkpt>
<trkpt lat="60.2487296" lon="-1.1418467">
<ele>0.01</ele>
<time>2019-06-29T11:29:35Z</time>
<hdop>10</hdop>
<extensions>
<speed>0.27</speed>
</extensions>
</trkpt>
<trkpt lat="60.2487219" lon="-1.1418246">
<ele>0.01</ele>
<time>2019-06-29T11:29:41Z</time>
<hdop>10</hdop>
<extensions>
<speed>0.38</speed>
</extensions>
</trkpt>
<trkpt lat="60.2487079" lon="-1.14179">
<ele>-0.99</ele>
<time>2019-06-29T11:29:47Z</time>
<hdop>10</hdop>
<extensions>
<speed>0.4</speed>
</extensions>
</trkpt>
<trkpt lat="60.2487072" lon="-1.1417575">
<ele>-0.99</ele>
<time>2019-06-29T11:29:52Z</time>
<hdop>9</hdop>
<extensions>
<speed>0.41</speed>
</extensions>
</trkpt>
<trkpt lat="60.2487073" lon="-1.1417265">
<ele>-1.99</ele>
<time>2019-06-29T11:29:58Z</time>
<hdop>9</hdop>
<extensions>
<speed>0.45</speed>
</extensions>
</trkpt>
<trkpt lat="60.2487073" lon="-1.1416861">
<ele>-0.99</ele>
<time>2019-06-29T11:30:04Z</time>
<hdop>9</hdop>
<extensions>
<speed>0.3</speed>
</extensions>
</trkpt>
<trkpt lat="60.2487146" lon="-1.141685">
<ele>-1.99</ele>
<time>2019-06-29T11:30:09Z</time>
<hdop>9</hdop>
<extensions>
<speed>0.37</speed>
</extensions>
</trkpt>
<trkpt lat="60.2487168" lon="-1.1416447">
<ele>-0.99</ele>
<time>2019-06-29T11:30:15Z</time>
<hdop>9</hdop>
<extensions>
<speed>0.25</speed>
</extensions>
</trkpt>
<trkpt lat="60.2487047" lon="-1.1416225">
<ele>-0.99</ele>
<time>2019-06-29T11:30:20Z</time>
<hdop>9</hdop>
<extensions>
<speed>0.46</speed>
</extensions>
</trkpt>
<trkpt lat="60.2486813" lon="-1.1415909">
<ele>-0.99</ele>
<time>2019-06-29T11:30:26Z</time>
<hdop>9</hdop>
<extensions>
<speed>0.5</speed>
</extensions>
</trkpt>
<trkpt lat="60.248678" lon="-1.1415592">
<ele>-1.99</ele>
<time>2019-06-29T11:30:32Z</time>
<hdop>9</hdop>
</trkpt>
<trkpt lat="60.2486652" lon="-1.1415563">
<ele>-0.99</ele>
<time>2019-06-29T11:30:37Z</time>
<hdop>9</hdop>
<extensions>
<speed>0.52</speed>
</extensions>
</trkpt>
<trkpt lat="60.248652" lon="-1.1415489">
<ele>0.01</ele>
<time>2019-06-29T11:30:42Z</time>
<hdop>9</hdop>
</trkpt>
<trkpt lat="60.2486451" lon="-1.1415424">
<ele>1.01</ele>
<time>2019-06-29T11:30:48Z</time>
<hdop>3</hdop>
</trkpt>
<trkpt lat="60.248633" lon="-1.1415344">
<ele>2.01</ele>
<time>2019-06-29T11:30:54Z</time>
<hdop>3</hdop>
</trkpt>
<trkpt lat="60.2486306" lon="-1.1415264">
<ele>1.01</ele>
<time>2019-06-29T11:31:00Z</time>
<hdop>3</hdop>
</trkpt>
<trkpt lat="60.24862" lon="-1.1415087">
<ele>0.01</ele>
<time>2019-06-29T11:31:05Z</time>
<hdop>3</hdop>
</trkpt>
<trkpt lat="60.2485833" lon="-1.1415647">
<ele>2.01</ele>
<time>2019-06-29T11:31:11Z</time>
<hdop>3</hdop>
<extensions>
<speed>0.73</speed>
</extensions>
</trkpt>
<trkpt lat="60.2485414" lon="-1.1416197">
<ele>3.01</ele>
<time>2019-06-29T11:31:17Z</time>
<hdop>3</hdop>
<extensions>
<speed>0.58</speed>
</extensions>
</trkpt>
<trkpt lat="60.2484966" lon="-1.1416773">
<ele>3.01</ele>
<time>2019-06-29T11:31:22Z</time>
<hdop>3</hdop>
<extensions>
<speed>0.8</speed>
</extensions>
</trkpt>
<trkpt lat="60.2484676" lon="-1.1417425">
<ele>5.01</ele>
<time>2019-06-29T11:31:28Z</time>
<hdop>3</hdop>
<extensions>
<speed>0.92</speed>
</extensions>
</trkpt>
<trkpt lat="60.2484331" lon="-1.1417619">
<ele>3.01</ele>
<time>2019-06-29T11:31:33Z</time>
<hdop>3</hdop>
<extensions>
<speed>0.94</speed>
</extensions>
</trkpt>
<trkpt lat="60.2483942" lon="-1.1418318">
<ele>4.01</ele>
<time>2019-06-29T11:31:39Z</time>
<hdop>3</hdop>
<extensions>
<speed>0.85</speed>
</extensions>
</trkpt>
<trkpt lat="60.2483532" lon="-1.1418748">
<ele>5.01</ele>
<time>2019-06-29T11:31:45Z</time>
<hdop>3</hdop>
<extensions>
<speed>0.58</speed>
</extensions>
</trkpt>
<trkpt lat="60.2483173" lon="-1.1419112">
<ele>4.01</ele>
<time>2019-06-29T11:31:50Z</time>
<hdop>4</hdop>
<extensions>
<speed>0.75</speed>
</extensions>
</trkpt>
<trkpt lat="60.2482827" lon="-1.1419072">
<ele>3.01</ele>
<time>2019-06-29T11:31:55Z</time>
<hdop>4</hdop>
<extensions>
<speed>0.7</speed>
</extensions>
</trkpt>
<trkpt lat="60.2482494" lon="-1.1419274">
<ele>3.01</ele>
<time>2019-06-29T11:32:00Z</time>
<hdop>3</hdop>
<extensions>
<speed>0.78</speed>
</extensions>
</trkpt>
<trkpt lat="60.2481969" lon="-1.1419544">
<ele>3.01</ele>
<time>2019-06-29T11:32:06Z</time>
<hdop>3</hdop>
<extensions>
<speed>0.9</speed>
</extensions>
</trkpt>
<trkpt lat="60.2481474" lon="-1.1420291">
<ele>3.01</ele>
<time>2019-06-29T11:32:12Z</time>
<hdop>3</hdop>
<extensions>
<speed>1.18</speed>
</extensions>
</trkpt>
<trkpt lat="60.2480909" lon="-1.1420469">
<ele>1.01</ele>
<time>2019-06-29T11:32:18Z</time>
<hdop>3</hdop>
<extensions>
<speed>1.27</speed>
</extensions>
</trkpt>
<trkpt lat="60.2480244" lon="-1.1421329">
<ele>0.01</ele>
<time>2019-06-29T11:32:24Z</time>
<hdop>4</hdop>
<extensions>
<speed>1.25</speed>
</extensions>
</trkpt>
<trkpt lat="60.2479531" lon="-1.1421802">
<ele>0.01</ele>
<time>2019-06-29T11:32:30Z</time>
<hdop>4</hdop>
<extensions>
<speed>1.04</speed>
</extensions>
</trkpt>
<trkpt lat="60.2479041" lon="-1.1421933">
<ele>3.01</ele>
<time>2019-06-29T11:32:35Z</time>
<hdop>4</hdop>
<extensions>
<speed>1.11</speed>
</extensions>
</trkpt>
<trkpt lat="60.247859" lon="-1.1422123">
<ele>4.01</ele>
<time>2019-06-29T11:32:40Z</time>
<hdop>3</hdop>
<extensions>
<speed>1.3</speed>
</extensions>
</trkpt>
<trkpt lat="60.2477889" lon="-1.1422796">
<ele>3.01</ele>
<time>2019-06-29T11:32:46Z</time>
<hdop>3</hdop>
<extensions>
<speed>1.23</speed>
</extensions>
</trkpt>
<trkpt lat="60.2477277" lon="-1.1423412">
<ele>2.01</ele>
<time>2019-06-29T11:32:52Z</time>
<hdop>4</hdop>
<extensions>
<speed>1.52</speed>
</extensions>
</trkpt>
<trkpt lat="60.2476777" lon="-1.1423831">
<ele>2.01</ele>
<time>2019-06-29T11:32:57Z</time>
<hdop>3</hdop>
<extensions>
<speed>0.9</speed>
</extensions>
</trkpt>
<trkpt lat="60.2476484" lon="-1.1424026">
<ele>2.01</ele>
<time>2019-06-29T11:33:02Z</time>
<hdop>3</hdop>
<extensions>
<speed>0.91</speed>
</extensions>
</trkpt>
<trkpt lat="60.2476097" lon="-1.1424291">
<ele>2.01</ele>
<time>2019-06-29T11:33:07Z</time>
<hdop>3</hdop>
<extensions>
<speed>1.11</speed>
</extensions>
</trkpt>
<trkpt lat="60.2475519" lon="-1.1424678">
<ele>2.01</ele>
<time>2019-06-29T11:33:13Z</time>
<hdop>3</hdop>
<extensions>
<speed>1.18</speed>
</extensions>
</trkpt>
<trkpt lat="60.2475066" lon="-1.1424706">
<ele>1.01</ele>
<time>2019-06-29T11:33:18Z</time>
<hdop>3</hdop>
<extensions>
<speed>1.12</speed>
</extensions>
</trkpt>
<trkpt lat="60.2474432" lon="-1.1425204">
<ele>1.01</ele>
<time>2019-06-29T11:33:24Z</time>
<hdop>4</hdop>
<extensions>
<speed>0.98</speed>
</extensions>
</trkpt>
<trkpt lat="60.2474004" lon="-1.1425379">
<ele>1.01</ele>
<time>2019-06-29T11:33:29Z</time>
<hdop>3</hdop>
<extensions>
<speed>0.95</speed>
</extensions>
</trkpt>
<trkpt lat="60.247354" lon="-1.142573">
<ele>1.01</ele>
<time>2019-06-29T11:33:34Z</time>
<hdop>3</hdop>
<extensions>
<speed>0.91</speed>
</extensions>
</trkpt>
<trkpt lat="60.2472912" lon="-1.142611">
<ele>2.01</ele>
<time>2019-06-29T11:33:40Z</time>
<hdop>4</hdop>
<extensions>
<speed>1.19</speed>
</extensions>
</trkpt>
<trkpt lat="60.2472332" lon="-1.1426605">
<ele>2.01</ele>
<time>2019-06-29T11:33:46Z</time>
<hdop>4</hdop>
<extensions>
<speed>1.05</speed>
</extensions>
</trkpt>
<trkpt lat="60.2471856" lon="-1.1427253">
<ele>3.01</ele>
<time>2019-06-29T11:33:51Z</time>
<hdop>3</hdop>
<extensions>
<speed>1.07</speed>
</extensions>
</trkpt>
<trkpt lat="60.2471275" lon="-1.1427633">
<ele>3.01</ele>
<time>2019-06-29T11:33:57Z</time>
<hdop>3</hdop>
<extensions>
<speed>1.08</speed>
</extensions>
</trkpt>
<trkpt lat="60.2470897" lon="-1.1427845">
<ele>3.01</ele>
<time>2019-06-29T11:34:03Z</time>
<hdop>3</hdop>
<extensions>
<speed>0.94</speed>
</extensions>
</trkpt>
<trkpt lat="60.2470466" lon="-1.1428315">
<ele>3.01</ele>
<time>2019-06-29T11:34:08Z</time>
<hdop>3</hdop>
<extensions>
<speed>0.94</speed>
</extensions>
</trkpt>
<trkpt lat="60.246992" lon="-1.1429071">
<ele>3.01</ele>
<time>2019-06-29T11:34:14Z</time>
<hdop>3</hdop>
<extensions>
<speed>1.02</speed>
</extensions>
</trkpt>
<trkpt lat="60.2469557" lon="-1.1429571">
<ele>3.01</ele>
<time>2019-06-29T11:34:19Z</time>
<hdop>3</hdop>
<extensions>
<speed>0.89</speed>
</extensions>
</trkpt>
<trkpt lat="60.2469164" lon="-1.143018">
<ele>4.01</ele>
<time>2019-06-29T11:34:25Z</time>
<hdop>3</hdop>
<extensions>
<speed>0.92</speed>
</extensions>
</trkpt>
<trkpt lat="60.2468675" lon="-1.1430866">
<ele>4.01</ele>
<time>2019-06-29T11:34:31Z</time>
<hdop>3</hdop>
<extensions>
<speed>1.11</speed>
</extensions>
</trkpt>
<trkpt lat="60.2468281" lon="-1.143135">
<ele>3.01</ele>
<time>2019-06-29T11:34:36Z</time>
<hdop>3</hdop>
<extensions>
<speed>1.07</speed>
</extensions>
</trkpt>
<trkpt lat="60.2467757" lon="-1.1431995">
<ele>3.01</ele>
<time>2019-06-29T11:34:42Z</time>
<hdop>3</hdop>
<extensions>
<speed>1.08</speed>
</extensions>
</trkpt>
<trkpt lat="60.2467425" lon="-1.143262">
<ele>3.01</ele>
<time>2019-06-29T11:34:47Z</time>
<hdop>3</hdop>
<extensions>
<speed>0.95</speed>
</extensions>
</trkpt>
<trkpt lat="60.2466999" lon="-1.1433474">
<ele>3.01</ele>
<time>2019-06-29T11:34:53Z</time>
<hdop>3</hdop>
<extensions>
<speed>0.92</speed>
</extensions>
</trkpt>
<trkpt lat="60.2466686" lon="-1.143405">
<ele>3.01</ele>
<time>2019-06-29T11:34:58Z</time>
<hdop>3</hdop>
<extensions>
<speed>0.79</speed>
</extensions>
</trkpt>
<trkpt lat="60.246635" lon="-1.1434776">
<ele>3.01</ele>
<time>2019-06-29T11:35:04Z</time>
<hdop>3</hdop>
<extensions>
<speed>0.86</speed>
</extensions>
</trkpt>
<trkpt lat="60.2466062" lon="-1.143553">
<ele>3.01</ele>
<time>2019-06-29T11:35:09Z</time>
<hdop>3</hdop>
<extensions>
<speed>1.04</speed>
</extensions>
</trkpt>
<trkpt lat="60.2465751" lon="-1.1436212">
<ele>3.01</ele>
<time>2019-06-29T11:35:14Z</time>
<hdop>3</hdop>
<extensions>
<speed>1.01</speed>
</extensions>
</trkpt>
<trkpt lat="60.2465456" lon="-1.1436892">
<ele>2.01</ele>
<time>2019-06-29T11:35:20Z</time>
<hdop>3</hdop>
<extensions>
<speed>0.81</speed>
</extensions>
</trkpt>
<trkpt lat="60.2465291" lon="-1.1437502">
<ele>2.01</ele>
<time>2019-06-29T11:35:25Z</time>
<hdop>3</hdop>
<extensions>
<speed>0.67</speed>
</extensions>
</trkpt>
<trkpt lat="60.2465164" lon="-1.1438156">
<ele>2.01</ele>
<time>2019-06-29T11:35:30Z</time>
<hdop>3</hdop>
<extensions>
<speed>0.68</speed>
</extensions>
</trkpt>
<trkpt lat="60.2464726" lon="-1.1438427">
<ele>1.01</ele>
<time>2019-06-29T11:35:36Z</time>
<hdop>3</hdop>
<extensions>
<speed>0.98</speed>
</extensions>
</trkpt>
<trkpt lat="60.246428" lon="-1.1438426">
<ele>1.01</ele>
<time>2019-06-29T11:35:41Z</time>
<hdop>3</hdop>
<extensions>
<speed>1.03</speed>
</extensions>
</trkpt>
<trkpt lat="60.2463555" lon="-1.1438568">
<ele>2.01</ele>
<time>2019-06-29T11:35:47Z</time>
<hdop>4</hdop>
<extensions>
<speed>0.98</speed>
</extensions>
</trkpt>
<trkpt lat="60.2463247" lon="-1.1438419">
<ele>1.01</ele>
<time>2019-06-29T11:35:52Z</time>
<hdop>3</hdop>
<extensions>
<speed>0.86</speed>
</extensions>
</trkpt>
<trkpt lat="60.2462758" lon="-1.1438804">
<ele>2.01</ele>
<time>2019-06-29T11:35:58Z</time>
<hdop>3</hdop>
<extensions>
<speed>0.73</speed>
</extensions>
</trkpt>
<trkpt lat="60.246234" lon="-1.1438996">
<ele>4.01</ele>
<time>2019-06-29T11:36:04Z</time>
<hdop>3</hdop>
<extensions>
<speed>0.92</speed>
</extensions>
</trkpt>
<trkpt lat="60.2461933" lon="-1.1439565">
<ele>3.01</ele>
<time>2019-06-29T11:36:09Z</time>
<hdop>3</hdop>
<extensions>
<speed>0.93</speed>
</extensions>
</trkpt>
<trkpt lat="60.2461506" lon="-1.144018">
<ele>4.01</ele>
<time>2019-06-29T11:36:14Z</time>
<hdop>3</hdop>
<extensions>
<speed>1</speed>
</extensions>
</trkpt>
<trkpt lat="60.2461129" lon="-1.1440469">
<ele>5.01</ele>
<time>2019-06-29T11:36:20Z</time>
<hdop>3</hdop>
<extensions>
<speed>0.82</speed>
</extensions>
</trkpt>
<trkpt lat="60.2460738" lon="-1.1440978">
<ele>5.01</ele>
<time>2019-06-29T11:36:25Z</time>
<hdop>3</hdop>
<extensions>
<speed>0.93</speed>
</extensions>
</trkpt>
<trkpt lat="60.2460333" lon="-1.1441426">
<ele>5.01</ele>
<time>2019-06-29T11:36:31Z</time>
<hdop>3</hdop>
<extensions>
<speed>1.01</speed>
</extensions>
</trkpt>
<trkpt lat="60.2459922" lon="-1.144181">
<ele>5.01</ele>
<time>2019-06-29T11:36:36Z</time>
<hdop>9</hdop>
<extensions>
<speed>0.88</speed>
</extensions>
</trkpt>
<trkpt lat="60.2459442" lon="-1.144228">
<ele>4.01</ele>
<time>2019-06-29T11:36:42Z</time>
<hdop>9</hdop>
<extensions>
<speed>0.98</speed>
</extensions>
</trkpt>
<trkpt lat="60.2458999" lon="-1.1442663">
<ele>3.01</ele>
<time>2019-06-29T11:36:48Z</time>
<hdop>9</hdop>
<extensions>
<speed>0.88</speed>
</extensions>
</trkpt>
<trkpt lat="60.245857" lon="-1.1443247">
<ele>4.01</ele>
<time>2019-06-29T11:36:54Z</time>
<hdop>9</hdop>
<extensions>
<speed>0.89</speed>
</extensions>
</trkpt>
<trkpt lat="60.2458204" lon="-1.1443601">
<ele>4.01</ele>
<time>2019-06-29T11:37:00Z</time>
<hdop>9</hdop>
<extensions>
<speed>0.95</speed>
</extensions>
</trkpt>
<trkpt lat="60.2457729" lon="-1.144375">
<ele>4.01</ele>
<time>2019-06-29T11:37:06Z</time>
<hdop>9</hdop>
<extensions>
<speed>0.92</speed>
</extensions>
</trkpt>
<trkpt lat="60.2457223" lon="-1.1443799">
<ele>4.01</ele>
<time>2019-06-29T11:37:11Z</time>
<hdop>9</hdop>
<extensions>
<speed>1</speed>
</extensions>
</trkpt>
<trkpt lat="60.2456754" lon="-1.1444022">
<ele>4.01</ele>
<time>2019-06-29T11:37:16Z</time>
<hdop>3</hdop>
<extensions>
<speed>1.05</speed>
</extensions>
</trkpt>
<trkpt lat="60.245616" lon="-1.1444286">
<ele>3.01</ele>
<time>2019-06-29T11:37:22Z</time>
<hdop>3</hdop>
<extensions>
<speed>1.05</speed>
</extensions>
</trkpt>
<trkpt lat="60.2455712" lon="-1.1444585">
<ele>4.01</ele>
<time>2019-06-29T11:37:27Z</time>
<hdop>3</hdop>
<extensions>
<speed>1.18</speed>
</extensions>
</trkpt>
<trkpt lat="60.2455243" lon="-1.1444878">
<ele>3.01</ele>
<time>2019-06-29T11:37:33Z</time>
<hdop>3</hdop>
<extensions>
<speed>1.08</speed>
</extensions>
</trkpt>
<trkpt lat="60.24547" lon="-1.1445148">
<ele>3.01</ele>
<time>2019-06-29T11:37:38Z</time>
<hdop>3</hdop>
<extensions>
<speed>1.1</speed>
</extensions>
</trkpt>
<trkpt lat="60.2454323" lon="-1.1445227">
<ele>3.01</ele>
<time>2019-06-29T11:37:43Z</time>
<hdop>3</hdop>
<extensions>
<speed>1</speed>
</extensions>
</trkpt>
<trkpt lat="60.245378" lon="-1.1445359">
<ele>3.01</ele>
<time>2019-06-29T11:37:49Z</time>
<hdop>3</hdop>
<extensions>
<speed>1</speed>
</extensions>
</trkpt>
<trkpt lat="60.245326" lon="-1.1445658">
<ele>3.01</ele>
<time>2019-06-29T11:37:55Z</time>
<hdop>3</hdop>
<extensions>
<speed>0.98</speed>
</extensions>
</trkpt>
<trkpt lat="60.2452669" lon="-1.1446138">
<ele>3.01</ele>
<time>2019-06-29T11:38:01Z</time>
<hdop>3</hdop>
<extensions>
<speed>0.94</speed>
</extensions>
</trkpt>
<trkpt lat="60.2452208" lon="-1.144637">
<ele>3.01</ele>
<time>2019-06-29T11:38:06Z</time>
<hdop>3</hdop>
<extensions>
<speed>1.03</speed>
</extensions>
</trkpt>
<trkpt lat="60.245175" lon="-1.1446757">
<ele>4.01</ele>
<time>2019-06-29T11:38:12Z</time>
<hdop>3</hdop>
<extensions>
<speed>1</speed>
</extensions>
</trkpt>
<trkpt lat="60.2451298" lon="-1.1447032">
<ele>4.01</ele>
<time>2019-06-29T11:38:17Z</time>
<hdop>9</hdop>
<extensions>
<speed>1.07</speed>
</extensions>
</trkpt>
<trkpt lat="60.2450782" lon="-1.1447136">
<ele>4.01</ele>
<time>2019-06-29T11:38:23Z</time>
<hdop>9</hdop>
<extensions>
<speed>1.07</speed>
</extensions>
</trkpt>
<trkpt lat="60.2450248" lon="-1.1447405">
<ele>4.01</ele>
<time>2019-06-29T11:38:28Z</time>
<hdop>9</hdop>
<extensions>
<speed>1.27</speed>
</extensions>
</trkpt>
<trkpt lat="60.2449504" lon="-1.1447853">
<ele>3.01</ele>
<time>2019-06-29T11:38:34Z</time>
<hdop>9</hdop>
<extensions>
<speed>1.19</speed>
</extensions>
</trkpt>
<trkpt lat="60.2448841" lon="-1.144817">
<ele>4.01</ele>
<time>2019-06-29T11:38:39Z</time>
<hdop>9</hdop>
<extensions>
<speed>1.17</speed>
</extensions>
</trkpt>
<trkpt lat="60.244836" lon="-1.1448297">
<ele>4.01</ele>
<time>2019-06-29T11:38:45Z</time>
<hdop>9</hdop>
<extensions>
<speed>1.04</speed>
</extensions>
</trkpt>
<trkpt lat="60.2447819" lon="-1.1448457">
<ele>2.01</ele>
<time>2019-06-29T11:38:51Z</time>
<hdop>9</hdop>
<extensions>
<speed>1.03</speed>
</extensions>
</trkpt>
<trkpt lat="60.2447443" lon="-1.1448757">
<ele>2.01</ele>
<time>2019-06-29T11:38:57Z</time>
<hdop>9</hdop>
<extensions>
<speed>0.88</speed>
</extensions>
</trkpt>
<trkpt lat="60.2447206" lon="-1.1448933">
<ele>2.01</ele>
<time>2019-06-29T11:39:02Z</time>
<hdop>3</hdop>
<extensions>
<speed>0.8</speed>
</extensions>
</trkpt>
<trkpt lat="60.2446793" lon="-1.1449136">
<ele>2.01</ele>
<time>2019-06-29T11:39:08Z</time>
<hdop>4</hdop>
<extensions>
<speed>0.72</speed>
</extensions>
</trkpt>
<trkpt lat="60.2446503" lon="-1.1448687">
<ele>1.01</ele>
<time>2019-06-29T11:39:14Z</time>
<hdop>4</hdop>
<extensions>
<speed>1.11</speed>
</extensions>
</trkpt>
<trkpt lat="60.2446038" lon="-1.1448611">
<ele>2.01</ele>
<time>2019-06-29T11:39:19Z</time>
<hdop>4</hdop>
<extensions>
<speed>0.99</speed>
</extensions>
</trkpt>
<trkpt lat="60.2445478" lon="-1.1448683">
<ele>2.01</ele>
<time>2019-06-29T11:39:24Z</time>
<hdop>4</hdop>
<extensions>
<speed>0.97</speed>
</extensions>
</trkpt>
<trkpt lat="60.24449" lon="-1.1449149">
<ele>2.01</ele>
<time>2019-06-29T11:39:30Z</time>
<hdop>3</hdop>
<extensions>
<speed>0.84</speed>
</extensions>
</trkpt>
<trkpt lat="60.2444686" lon="-1.1449375">
<ele>3.01</ele>
<time>2019-06-29T11:39:36Z</time>
<hdop>3</hdop>
<extensions>
<speed>0.76</speed>
</extensions>
</trkpt>
<trkpt lat="60.2444532" lon="-1.1449707">
<ele>2.01</ele>
<time>2019-06-29T11:39:41Z</time>
<hdop>3</hdop>
<extensions>
<speed>1</speed>
</extensions>
</trkpt>
<trkpt lat="60.2444394" lon="-1.1450252">
<ele>2.01</ele>
<time>2019-06-29T11:39:46Z</time>
<hdop>3</hdop>
<extensions>
<speed>0.85</speed>
</extensions>
</trkpt>
<trkpt lat="60.244409" lon="-1.1451319">
<ele>2.01</ele>
<time>2019-06-29T11:39:52Z</time>
<hdop>3</hdop>
<extensions>
<speed>1.39</speed>
</extensions>
</trkpt>
<trkpt lat="60.2443603" lon="-1.1452292">
<ele>1.01</ele>
<time>2019-06-29T11:39:58Z</time>
<hdop>3</hdop>
<extensions>
<speed>1.14</speed>
</extensions>
</trkpt>
<trkpt lat="60.2443287" lon="-1.1453167">
<ele>1.01</ele>
<time>2019-06-29T11:40:03Z</time>
<hdop>3</hdop>
<extensions>
<speed>0.9</speed>
</extensions>
</trkpt>
<trkpt lat="60.2443017" lon="-1.145398">
<ele>0.01</ele>
<time>2019-06-29T11:40:09Z</time>
<hdop>4</hdop>
<extensions>
<speed>0.83</speed>
</extensions>
</trkpt>
<trkpt lat="60.2442775" lon="-1.1454518">
<ele>-0.99</ele>
<time>2019-06-29T11:40:15Z</time>
<hdop>3</hdop>
<extensions>
<speed>0.47</speed>
</extensions>
</trkpt>
<trkpt lat="60.2442239" lon="-1.1454729">
<ele>0.01</ele>
<time>2019-06-29T11:40:22Z</time>
<hdop>6</hdop>
<extensions>
<speed>0.8</speed>
</extensions>
</trkpt>
<trkpt lat="60.2442275" lon="-1.1454504">
<ele>-0.99</ele>
<time>2019-06-29T11:40:27Z</time>
<hdop>5</hdop>
</trkpt>
<trkpt lat="60.2442036" lon="-1.1455487">
<ele>-0.99</ele>
<time>2019-06-29T11:40:33Z</time>
<hdop>6</hdop>
<extensions>
<speed>0.93</speed>
</extensions>
</trkpt>
<trkpt lat="60.2441833" lon="-1.1456007">
<ele>1.01</ele>
<time>2019-06-29T11:40:38Z</time>
<hdop>4</hdop>
<extensions>
<speed>0.97</speed>
</extensions>
</trkpt>
<trkpt lat="60.2441639" lon="-1.145712">
<ele>3.01</ele>
<time>2019-06-29T11:40:44Z</time>
<hdop>4</hdop>
<extensions>
<speed>0.99</speed>
</extensions>
</trkpt>
<trkpt lat="60.2441395" lon="-1.1458029">
<ele>3.01</ele>
<time>2019-06-29T11:40:49Z</time>
<hdop>5</hdop>
<extensions>
<speed>0.99</speed>
</extensions>
</trkpt>
<trkpt lat="60.24409" lon="-1.1459107">
<ele>5.01</ele>
<time>2019-06-29T11:40:55Z</time>
<hdop>4</hdop>
<extensions>
<speed>1.01</speed>
</extensions>
</trkpt>
<trkpt lat="60.244042" lon="-1.145969">
<ele>5.01</ele>
<time>2019-06-29T11:41:01Z</time>
<hdop>4</hdop>
<extensions>
<speed>1.1</speed>
</extensions>
</trkpt>
<trkpt lat="60.2439792" lon="-1.1459987">
<ele>6.01</ele>
<time>2019-06-29T11:41:06Z</time>
<hdop>4</hdop>
<extensions>
<speed>1.2</speed>
</extensions>
</trkpt>
<trkpt lat="60.2439194" lon="-1.1460521">
<ele>4.01</ele>
<time>2019-06-29T11:41:12Z</time>
<hdop>4</hdop>
<extensions>
<speed>1.13</speed>
</extensions>
</trkpt>
<trkpt lat="60.243857" lon="-1.1460505">
<ele>5.01</ele>
<time>2019-06-29T11:41:18Z</time>
<hdop>5</hdop>
<extensions>
<speed>1.64</speed>
</extensions>
</trkpt>
<trkpt lat="60.2437862" lon="-1.1460853">
<ele>3.01</ele>
<time>2019-06-29T11:41:24Z</time>
<hdop>4</hdop>
<extensions>
<speed>0.92</speed>
</extensions>
</trkpt>
<trkpt lat="60.2437632" lon="-1.1461869">
<ele>3.01</ele>
<time>2019-06-29T11:41:30Z</time>
<hdop>3</hdop>
<extensions>
<speed>1.22</speed>
</extensions>
</trkpt>
<trkpt lat="60.2437356" lon="-1.146256">
<ele>2.01</ele>
<time>2019-06-29T11:41:35Z</time>
<hdop>3</hdop>
<extensions>
<speed>1.04</speed>
</extensions>
</trkpt>
<trkpt lat="60.2437141" lon="-1.146348">
<ele>3.01</ele>
<time>2019-06-29T11:41:41Z</time>
<hdop>3</hdop>
<extensions>
<speed>0.91</speed>
</extensions>
</trkpt>
<trkpt lat="60.243693" lon="-1.146454">
<ele>3.01</ele>
<time>2019-06-29T11:41:47Z</time>
<hdop>4</hdop>
<extensions>
<speed>1.02</speed>
</extensions>
</trkpt>
<trkpt lat="60.2436751" lon="-1.1465026">
<ele>4.01</ele>
<time>2019-06-29T11:41:52Z</time>
<hdop>4</hdop>
</trkpt>
<trkpt lat="60.2436452" lon="-1.1465208">
<ele>2.01</ele>
<time>2019-06-29T11:41:58Z</time>
<hdop>4</hdop>
<extensions>
<speed>0.9</speed>
</extensions>
</trkpt>
<trkpt lat="60.2436153" lon="-1.1465495">
<ele>1.01</ele>
<time>2019-06-29T11:42:03Z</time>
<hdop>4</hdop>
<extensions>
<speed>0.95</speed>
</extensions>
</trkpt>
<trkpt lat="60.2435694" lon="-1.1466509">
<ele>3.01</ele>
<time>2019-06-29T11:42:09Z</time>
<hdop>4</hdop>
<extensions>
<speed>0.69</speed>
</extensions>
</trkpt>
<trkpt lat="60.2435616" lon="-1.1466169">
<ele>3.01</ele>
<time>2019-06-29T11:42:15Z</time>
<hdop>4</hdop>
</trkpt>
<trkpt lat="60.2435618" lon="-1.1466309">
<ele>4.01</ele>
<time>2019-06-29T11:42:20Z</time>
<hdop>4</hdop>
</trkpt>
<trkpt lat="60.2435608" lon="-1.146631">
<ele>3.01</ele>
<time>2019-06-29T11:42:26Z</time>
<hdop>4</hdop>
</trkpt>
<trkpt lat="60.2435102" lon="-1.146654">
<ele>2.01</ele>
<time>2019-06-29T11:42:32Z</time>
<hdop>4</hdop>
<extensions>
<speed>0.88</speed>
</extensions>
</trkpt>
<trkpt lat="60.2434538" lon="-1.1466254">
<ele>3.01</ele>
<time>2019-06-29T11:42:37Z</time>
<hdop>3</hdop>
<extensions>
<speed>1.35</speed>
</extensions>
</trkpt>
<trkpt lat="60.243394" lon="-1.1465586">
<ele>1.01</ele>
<time>2019-06-29T11:42:43Z</time>
<hdop>5</hdop>
<extensions>
<speed>1.43</speed>
</extensions>
</trkpt>
<trkpt lat="60.2433178" lon="-1.1464732">
<ele>3.01</ele>
<time>2019-06-29T11:42:49Z</time>
<hdop>3</hdop>
<extensions>
<speed>1.6</speed>
</extensions>
</trkpt>
<trkpt lat="60.2432859" lon="-1.1463515">
<ele>3.01</ele>
<time>2019-06-29T11:42:54Z</time>
<hdop>3</hdop>
<extensions>
<speed>1.36</speed>
</extensions>
</trkpt>
<trkpt lat="60.2432564" lon="-1.1461561">
<ele>3.01</ele>
<time>2019-06-29T11:43:00Z</time>
<hdop>3</hdop>
<extensions>
<speed>1.8</speed>
</extensions>
</trkpt>
<trkpt lat="60.2432442" lon="-1.1459933">
<ele>4.01</ele>
<time>2019-06-29T11:43:05Z</time>
<hdop>3</hdop>
<extensions>
<speed>1.72</speed>
</extensions>
</trkpt>
<trkpt lat="60.2432361" lon="-1.1457706">
<ele>4.01</ele>
<time>2019-06-29T11:43:11Z</time>
<hdop>3</hdop>
<extensions>
<speed>1.96</speed>
</extensions>
</trkpt>
<trkpt lat="60.2432433" lon="-1.1456368">
<ele>4.01</ele>
<time>2019-06-29T11:43:16Z</time>
<hdop>3</hdop>
<extensions>
<speed>1.94</speed>
</extensions>
</trkpt>
<trkpt lat="60.2432481" lon="-1.1454197">
<ele>5.01</ele>
<time>2019-06-29T11:43:22Z</time>
<hdop>3</hdop>
<extensions>
<speed>1.89</speed>
</extensions>
</trkpt>
<trkpt lat="60.243261" lon="-1.1452629">
<ele>3.01</ele>
<time>2019-06-29T11:43:27Z</time>
<hdop>3</hdop>
<extensions>
<speed>1.81</speed>
</extensions>
</trkpt>
<trkpt lat="60.2432703" lon="-1.1450946">
<ele>3.01</ele>
<time>2019-06-29T11:43:32Z</time>
<hdop>3</hdop>
<extensions>
<speed>1.7</speed>
</extensions>
</trkpt>
<trkpt lat="60.2432861" lon="-1.1449307">
<ele>3.01</ele>
<time>2019-06-29T11:43:38Z</time>
<hdop>3</hdop>
<extensions>
<speed>1.4</speed>
</extensions>
</trkpt>
<trkpt lat="60.243296" lon="-1.1448349">
<ele>2.01</ele>
<time>2019-06-29T11:43:43Z</time>
<hdop>3</hdop>
<extensions>
<speed>1.03</speed>
</extensions>
</trkpt>
<trkpt lat="60.2433224" lon="-1.1447547">
<ele>1.01</ele>
<time>2019-06-29T11:43:49Z</time>
<hdop>3</hdop>
<extensions>
<speed>0.82</speed>
</extensions>
</trkpt>
<trkpt lat="60.2433392" lon="-1.1446527">
<ele>1.01</ele>
<time>2019-06-29T11:43:55Z</time>
<hdop>3</hdop>
<extensions>
<speed>0.89</speed>
</extensions>
</trkpt>
<trkpt lat="60.2433659" lon="-1.1445106">
<ele>0.01</ele>
<time>2019-06-29T11:44:01Z</time>
<hdop>3</hdop>
<extensions>
<speed>1.48</speed>
</extensions>
</trkpt>
<trkpt lat="60.2433617" lon="-1.1443962">
<ele>-1.99</ele>
<time>2019-06-29T11:44:07Z</time>
<hdop>3</hdop>
<extensions>
<speed>1.45</speed>
</extensions>
</trkpt>
<trkpt lat="60.2433494" lon="-1.1442398">
<ele>-0.99</ele>
<time>2019-06-29T11:44:13Z</time>
<hdop>3</hdop>
<extensions>
<speed>1.13</speed>
</extensions>
</trkpt>
<trkpt lat="60.2433461" lon="-1.1441534">
<ele>-0.99</ele>
<time>2019-06-29T11:44:19Z</time>
<hdop>3</hdop>
<extensions>
<speed>0.45</speed>
</extensions>
</trkpt>
<trkpt lat="60.2433522" lon="-1.1440741">
<ele>-0.99</ele>
<time>2019-06-29T11:44:25Z</time>
<hdop>3</hdop>
<extensions>
<speed>0.66</speed>
</extensions>
</trkpt>
<trkpt lat="60.2433522" lon="-1.1440658">
<ele>-1.99</ele>
<time>2019-06-29T11:44:31Z</time>
<hdop>3</hdop>
</trkpt>
<trkpt lat="60.2433513" lon="-1.1440677">
<ele>-1.99</ele>
<time>2019-06-29T11:44:37Z</time>
<hdop>3</hdop>
</trkpt>
<trkpt lat="60.2433521" lon="-1.1440642">
<ele>-1.99</ele>
<time>2019-06-29T11:44:43Z</time>
<hdop>3</hdop>
</trkpt>
<trkpt lat="60.2433517" lon="-1.1440617">
<ele>-1.99</ele>
<time>2019-06-29T11:44:48Z</time>
<hdop>3</hdop>
</trkpt>
<trkpt lat="60.2433691" lon="-1.1440926">
<ele>-0.99</ele>
<time>2019-06-29T11:44:54Z</time>
<hdop>3</hdop>
<extensions>
<speed>0.58</speed>
</extensions>
</trkpt>
<trkpt lat="60.2434001" lon="-1.1440933">
<ele>0.01</ele>
<time>2019-06-29T11:45:00Z</time>
<hdop>3</hdop>
<extensions>
<speed>0.23</speed>
</extensions>
</trkpt>
<trkpt lat="60.2434117" lon="-1.1440684">
<ele>1.01</ele>
<time>2019-06-29T11:45:06Z</time>
<hdop>3</hdop>
<extensions>
<speed>0.19</speed>
</extensions>
</trkpt>
<trkpt lat="60.2434142" lon="-1.1440206">
<ele>0.01</ele>
<time>2019-06-29T11:45:12Z</time>
<hdop>3</hdop>
<extensions>
<speed>0.36</speed>
</extensions>
</trkpt>
<trkpt lat="60.2434135" lon="-1.1439959">
<ele>0.01</ele>
<time>2019-06-29T11:45:17Z</time>
<hdop>3</hdop>
<extensions>
<speed>0.31</speed>